Time;durP1;ratioP1;P1;durP2;ratioP2;P2;SDS_P1;SDS_P2;PMS_P1;PMS_P2;Temp;Humidity;BMP_temperature;BMP_pressure;BME280_temperature;BME280_humidity;BME280_pressure;Samples;Min_cycle;Max_cycle;Signal;HPM_P1;HPM_P2
2021/08/28 00:00:28;;;;;;;1.37;1.27;;;16.10;99.90;;;;;;5091089;28;20728;-71
2021/08/28 00:02:56;;;;;;;1.13;1.13;;;16.10;99.90;;;;;;5091501;28;20594;-71
2021/08/28 00:05:23;;;;;;;1.43;1.40;;;16.10;99.90;;;;;;5091432;28;20248;-70
2021/08/28 00:07:50;;;;;;;1.80;1.23;;;16.00;99.90;;;;;;5091312;28;20213;-71
2021/08/28 00:10:16;;;;;;;0.90;0.90;;;16.00;99.90;;;;;;5091434;28;20206;-71
2021/08/28 00:12:43;;;;;;;1.57;1.40;;;16.00;99.90;;;;;;5091089;28;20230;-70
2021/08/28 00:15:11;;;;;;;1.90;1.13;;;16.00;99.90;;;;;;5090990;28;20291;-70
2021/08/28 00:17:39;;;;;;;0.80;0.80;;;16.00;99.90;;;;;;5091054;28;20230;-70
2021/08/28 00:20:11;;;;;;;2.00;1.17;;;16.00;99.90;;;;;;5091478;28;20255;-71
2021/08/28 00:22:38;;;;;;;1.20;1.20;;;16.00;99.90;;;;;;5090987;28;20195;-70
2021/08/28 00:25:06;;;;;;;1.00;1.00;;;16.00;99.90;;;;;;5090855;28;20260;-72
2021/08/28 00:27:33;;;;;;;2.40;2.20;;;16.00;99.90;;;;;;5090631;28;20256;-72
2021/08/28 00:30:00;;;;;;;2.30;2.10;;;15.90;99.90;;;;;;5090928;28;20203;-73
2021/08/28 00:32:27;;;;;;;1.90;1.80;;;15.90;99.90;;;;;;5091222;28;20260;-73
2021/08/28 00:34:53;;;;;;;2.77;1.50;;;15.70;99.90;;;;;;5090558;28;20210;-73
2021/08/28 00:37:21;;;;;;;2.90;1.20;;;15.70;99.90;;;;;;5090784;28;20234;-73
2021/08/28 00:39:48;;;;;;;1.47;1.10;;;15.80;99.90;;;;;;5090355;28;20665;-71
2021/08/28 00:42:15;;;;;;;1.53;1.43;;;15.80;99.90;;;;;;5090513;28;20211;-71
2021/08/28 00:44:42;;;;;;;1.43;1.33;;;15.80;99.90;;;;;;5090520;28;20908;-71
2021/08/28 00:47:10;;;;;;;1.43;1.33;;;15.80;99.90;;;;;;5090306;28;20624;-71
2021/08/28 00:49:36;;;;;;;2.23;1.00;;;15.80;99.90;;;;;;5090510;28;20256;-72
2021/08/28 00:52:04;;;;;;;2.83;1.20;;;15.90;99.90;;;;;;5090425;28;20223;-71
2021/08/28 00:54:33;;;;;;;1.40;1.40;;;15.90;99.90;;;;;;5089887;28;21100;-71
2021/08/28 00:57:01;;;;;;;2.37;1.43;;;15.90;99.90;;;;;;5090332;28;20237;-73
2021/08/28 00:59:28;;;;;;;1.73;1.60;;;15.80;99.90;;;;;;5090174;28;20252;-72
2021/08/28 01:01:55;;;;;;;1.90;1.50;;;15.70;99.90;;;;;;5090124;28;20203;-73
2021/08/28 01:04:26;;;;;;;1.47;1.47;;;15.70;99.90;;;;;;5089777;28;20685;-72
2021/08/28 01:07:02;;;;;;;1.87;1.50;;;15.70;99.90;;;;;;5089970;28;20199;-73
2021/08/28 01:09:34;;;;;;;4.43;1.90;;;15.70;99.90;;;;;;5089929;28;20202;-73
2021/08/28 01:12:06;;;;;;;2.30;1.87;;;15.70;99.90;;;;;;5089824;28;20195;-70
2021/08/28 01:14:34;;;;;;;1.90;1.80;;;15.60;99.90;;;;;;5098661;28;20202;-70
2021/08/28 01:17:03;;;;;;;1.70;1.60;;;15.60;99.90;;;;;;5109829;28;20782;-70
2021/08/28 01:19:39;;;;;;;1.90;1.80;;;15.60;99.90;;;;;;5109829;28;20695;-70
2021/08/28 01:22:08;;;;;;;2.27;1.63;;;15.60;99.90;;;;;;5110089;28;20627;-71
2021/08/28 01:24:37;;;;;;;1.70;1.60;;;15.70;99.90;;;;;;5109633;28;20734;-70
2021/08/28 01:27:09;;;;;;;4.17;1.90;;;15.70;99.90;;;;;;5109938;28;20649;-70
2021/08/28 01:29:39;;;;;;;1.93;1.50;;;15.70;99.90;;;;;;5109980;28;20206;-70
2021/08/28 01:32:08;;;;;;;1.60;1.50;;;15.70;99.90;;;;;;5110069;28;20254;-70
2021/08/28 01:34:37;;;;;;;1.50;1.50;;;15.70;99.90;;;;;;5109716;28;20907;-71
2021/08/28 01:37:06;;;;;;;2.30;1.60;;;15.70;99.90;;;;;;5109960;28;20268;-70
2021/08/28 01:39:34;;;;;;;3.47;1.70;;;15.70;99.90;;;;;;5109540;28;20714;-70
2021/08/28 01:42:04;;;;;;;1.80;1.70;;;15.70;99.90;;;;;;5109897;28;20202;-70
2021/08/28 01:44:32;;;;;;;4.03;2.13;;;15.70;99.90;;;;;;5109724;28;20644;-70
2021/08/28 01:47:00;;;;;;;1.70;1.60;;;15.70;99.90;;;;;;5109858;28;20259;-71
2021/08/28 01:49:28;;;;;;;2.07;1.97;;;15.70;99.90;;;;;;5109524;28;20725;-70
2021/08/28 01:51:54;;;;;;;1.80;1.70;;;15.70;99.90;;;;;;5109347;28;20227;-70
2021/08/28 01:54:21;;;;;;;2.27;1.97;;;15.70;99.90;;;;;;5108846;28;20374;-70
2021/08/28 01:56:48;;;;;;;2.20;2.10;;;15.70;99.90;;;;;;5109520;28;20202;-71
2021/08/28 01:59:15;;;;;;;1.97;1.80;;;15.50;99.90;;;;;;5109659;28;20230;-71
2021/08/28 02:01:41;;;;;;;2.37;2.27;;;15.50;99.90;;;;;;5109587;28;20206;-71
2021/08/28 02:04:10;;;;;;;2.20;1.87;;;15.50;99.90;;;;;;5109649;28;20202;-71
2021/08/28 02:06:44;;;;;;;1.90;1.80;;;15.50;99.90;;;;;;5109322;28;20278;-71
2021/08/28 02:09:19;;;;;;;3.03;2.30;;;15.40;99.90;;;;;;5109533;28;20189;-70
2021/08/28 02:11:52;;;;;;;2.77;1.80;;;15.40;99.90;;;;;;5109120;28;20239;-71
2021/08/28 02:14:22;;;;;;;1.80;1.70;;;15.30;99.90;;;;;;5109016;28;20725;-71
2021/08/28 02:16:49;;;;;;;2.10;2.00;;;15.40;99.90;;;;;;5109013;28;20221;-71
2021/08/28 02:19:21;;;;;;;1.93;1.83;;;15.40;99.90;;;;;;5108992;28;20202;-72
2021/08/28 02:21:52;;;;;;;2.13;1.90;;;15.30;99.90;;;;;;5108800;28;20247;-72
2021/08/28 02:24:21;;;;;;;3.90;1.90;;;15.40;99.90;;;;;;5108869;28;20713;-72
2021/08/28 02:26:54;;;;;;;2.67;1.83;;;15.40;99.90;;;;;;5109017;28;20198;-72
2021/08/28 02:29:29;;;;;;;1.70;1.60;;;15.40;99.90;;;;;;5109184;28;20191;-71
2021/08/28 02:31:59;;;;;;;2.10;1.90;;;15.50;99.90;;;;;;5108718;28;20640;-71
2021/08/28 02:34:28;;;;;;;2.00;1.77;;;15.50;99.90;;;;;;5108982;28;20240;-74
2021/08/28 02:36:55;;;;;;;1.73;1.63;;;15.50;99.90;;;;;;5109033;28;20502;-74
2021/08/28 02:39:22;;;;;;;1.80;1.70;;;15.50;99.90;;;;;;5109043;28;20559;-74
2021/08/28 02:41:49;;;;;;;2.20;2.00;;;15.60;99.90;;;;;;5108903;28;20266;-73
2021/08/28 02:44:17;;;;;;;1.80;1.70;;;15.50;99.90;;;;;;5108934;28;20204;-73
2021/08/28 02:46:46;;;;;;;2.33;2.23;;;15.60;99.90;;;;;;5108734;28;20206;-74
2021/08/28 02:49:15;;;;;;;2.43;2.10;;;15.50;99.90;;;;;;5108912;28;20271;-74
2021/08/28 02:51:45;;;;;;;1.83;1.70;;;15.50;99.90;;;;;;5108542;28;21130;-74
2021/08/28 02:54:13;;;;;;;2.20;2.00;;;15.50;99.90;;;;;;5108422;28;20712;-73
2021/08/28 02:56:41;;;;;;;2.10;2.00;;;15.50;99.90;;;;;;5108761;28;20271;-74
2021/08/28 02:59:09;;;;;;;2.00;1.90;;;15.40;99.90;;;;;;5108688;28;20634;-74
2021/08/28 03:01:36;;;;;;;3.17;2.00;;;15.40;99.90;;;;;;5108471;28;20198;-73
2021/08/28 03:04:03;;;;;;;1.83;1.73;;;15.40;99.90;;;;;;5108506;28;20623;-74
2021/08/28 03:06:31;;;;;;;4.50;2.07;;;15.50;99.90;;;;;;5109893;28;20241;-73
2021/08/28 03:08:59;;;;;;;2.33;2.23;;;15.40;99.90;;;;;;5112938;28;20282;-73
2021/08/28 03:11:26;;;;;;;2.27;2.17;;;15.40;99.90;;;;;;5112971;28;20238;-73
2021/08/28 03:13:54;;;;;;;2.40;2.00;;;15.40;99.90;;;;;;5112772;28;20225;-74
2021/08/28 03:16:22;;;;;;;2.20;2.07;;;15.40;99.90;;;;;;5112451;28;20695;-74
2021/08/28 03:18:53;;;;;;;2.27;2.10;;;15.50;99.90;;;;;;5112606;28;20318;-71
2021/08/28 03:21:20;;;;;;;2.63;2.43;;;15.50;99.90;;;;;;5112595;28;20190;-71
2021/08/28 03:23:48;;;;;;;2.40;2.30;;;15.50;99.90;;;;;;5112364;28;20263;-71
2021/08/28 03:26:20;;;;;;;2.67;2.57;;;15.30;99.90;;;;;;5112537;28;20202;-71
2021/08/28 03:28:48;;;;;;;3.67;2.90;;;15.30;99.90;;;;;;5112357;28;20235;-71
2021/08/28 03:31:16;;;;;;;3.20;2.90;;;15.20;99.90;;;;;;5112477;28;20206;-71
2021/08/28 03:33:45;;;;;;;3.77;2.97;;;15.10;99.90;;;;;;5112226;28;20206;-71
2021/08/28 03:36:12;;;;;;;3.00;2.90;;;15.10;99.90;;;;;;5112408;28;20246;-73
2021/08/28 03:38:38;;;;;;;3.53;3.33;;;15.10;99.90;;;;;;5112013;28;20251;-72
2021/08/28 03:41:05;;;;;;;3.50;3.30;;;15.10;99.90;;;;;;5112091;28;20209;-71
2021/08/28 03:43:33;;;;;;;3.67;3.47;;;15.20;99.90;;;;;;5112072;28;20664;-71
2021/08/28 03:46:00;;;;;;;3.50;3.30;;;15.20;99.90;;;;;;5111791;28;20202;-72
2021/08/28 03:48:27;;;;;;;3.57;3.37;;;15.20;99.90;;;;;;5112239;28;20258;-71
2021/08/28 03:50:54;;;;;;;4.63;4.33;;;15.30;99.90;;;;;;5111805;28;20225;-73
2021/08/28 03:53:21;;;;;;;4.53;4.23;;;15.30;99.90;;;;;;5111961;28;20198;-72
2021/08/28 03:55:47;;;;;;;4.10;3.80;;;15.30;99.90;;;;;;5111685;28;20194;-72
2021/08/28 03:58:14;;;;;;;4.30;4.00;;;15.30;99.90;;;;;;5111809;28;20269;-72
2021/08/28 04:00:42;;;;;;;4.20;4.00;;;15.30;99.90;;;;;;5111619;28;20267;-72
2021/08/28 04:03:09;;;;;;;5.13;4.63;;;15.30;99.90;;;;;;5111758;28;20206;-73
2021/08/28 04:05:36;;;;;;;4.97;4.57;;;15.30;99.90;;;;;;5111863;28;20241;-72
2021/08/28 04:08:03;;;;;;;5.30;4.80;;;15.30;99.90;;;;;;5111118;28;20949;-71
2021/08/28 04:10:29;;;;;;;5.53;5.03;;;15.30;99.90;;;;;;5111379;28;20206;-71
2021/08/28 04:12:56;;;;;;;5.90;5.50;;;15.30;99.90;;;;;;5111660;28;20222;-71
2021/08/28 04:15:22;;;;;;;5.40;5.10;;;15.30;99.90;;;;;;5111475;28;20222;-72
2021/08/28 04:17:51;;;;;;;6.07;5.20;;;15.20;99.90;;;;;;5110823;28;20234;-73
2021/08/28 04:20:17;;;;;;;5.37;4.93;;;15.20;99.90;;;;;;5111566;28;20206;-72
2021/08/28 04:22:44;;;;;;;6.33;5.93;;;15.30;99.90;;;;;;5111217;28;20247;-73
2021/08/28 04:25:11;;;;;;;6.03;5.63;;;15.20;99.90;;;;;;5111095;28;20610;-73
2021/08/28 04:27:38;;;;;;;6.17;5.67;;;15.20;99.90;;;;;;5111381;28;20206;-73
2021/08/28 04:30:05;;;;;;;5.57;5.10;;;15.10;99.90;;;;;;5111153;28;20233;-73
2021/08/28 04:32:32;;;;;;;5.83;5.43;;;15.10;99.90;;;;;;5111296;28;20202;-71
2021/08/28 04:35:00;;;;;;;5.50;5.20;;;15.00;99.90;;;;;;5111130;28;20228;-71
2021/08/28 04:37:27;;;;;;;5.47;5.10;;;14.90;99.90;;;;;;5111073;28;20210;-71
2021/08/28 04:39:53;;;;;;;6.13;5.63;;;14.90;99.90;;;;;;5111119;28;20263;-70
2021/08/28 04:42:20;;;;;;;6.10;5.70;;;15.00;99.90;;;;;;5111182;28;20206;-71
2021/08/28 04:44:48;;;;;;;6.57;6.07;;;14.90;99.90;;;;;;5111037;28;20228;-70
2021/08/28 04:47:15;;;;;;;6.27;5.87;;;14.80;99.90;;;;;;5111194;28;20293;-71
2021/08/28 04:49:42;;;;;;;6.77;6.17;;;14.80;99.90;;;;;;5110797;28;20256;-71
2021/08/28 04:52:10;;;;;;;5.77;5.37;;;14.80;99.90;;;;;;5110735;28;20661;-71
2021/08/28 04:54:36;;;;;;;5.50;5.10;;;14.80;99.90;;;;;;5110464;28;20246;-71
2021/08/28 04:57:03;;;;;;;5.63;5.27;;;14.80;99.90;;;;;;5110368;28;20664;-71
2021/08/28 04:59:30;;;;;;;6.20;5.63;;;14.80;99.90;;;;;;5110559;28;20275;-71
2021/08/28 05:01:58;;;;;;;5.27;4.97;;;14.80;99.90;;;;;;5110484;28;20291;-70
2021/08/28 05:04:25;;;;;;;5.73;5.33;;;14.90;99.90;;;;;;5110619;28;20202;-70
2021/08/28 05:06:52;;;;;;;5.87;5.47;;;14.90;99.90;;;;;;5110487;28;20271;-70
2021/08/28 05:09:20;;;;;;;6.00;5.50;;;14.90;99.90;;;;;;5110444;28;20229;-70
2021/08/28 05:11:47;;;;;;;5.60;5.30;;;15.00;99.90;;;;;;5110527;28;20226;-70
2021/08/28 05:14:14;;;;;;;5.57;5.17;;;15.00;99.90;;;;;;5110112;28;20550;-70
2021/08/28 05:16:41;;;;;;;5.73;5.43;;;15.00;99.90;;;;;;5110164;28;20203;-70
2021/08/28 05:19:07;;;;;;;5.90;5.37;;;15.00;99.90;;;;;;5109768;28;20673;-70
2021/08/28 05:21:34;;;;;;;5.60;5.20;;;14.90;99.90;;;;;;5110289;28;20222;-70
2021/08/28 05:24:01;;;;;;;5.80;5.40;;;15.00;99.90;;;;;;5110252;28;20285;-71
2021/08/28 05:26:29;;;;;;;5.57;5.17;;;14.90;99.90;;;;;;5109918;28;20198;-69
2021/08/28 05:28:56;;;;;;;5.27;4.97;;;14.80;99.90;;;;;;5109001;28;20210;-70
2021/08/28 05:31:22;;;;;;;5.00;4.70;;;14.80;99.90;;;;;;5109981;28;20202;-70
2021/08/28 05:33:49;;;;;;;5.03;4.67;;;14.80;99.90;;;;;;5109964;28;20201;-72
2021/08/28 05:36:16;;;;;;;4.53;4.23;;;14.80;99.90;;;;;;5110069;28;20198;-72
2021/08/28 05:38:42;;;;;;;4.97;4.57;;;14.80;99.90;;;;;;5109781;28;20241;-73
2021/08/28 05:41:09;;;;;;;4.40;4.13;;;14.80;99.90;;;;;;5109515;28;20619;-72
2021/08/28 05:43:37;;;;;;;4.30;4.00;;;14.70;99.90;;;;;;5109499;28;20668;-72
2021/08/28 05:46:05;;;;;;;4.27;3.97;;;14.80;99.90;;;;;;5109652;28;20209;-71
2021/08/28 05:48:32;;;;;;;4.70;4.40;;;14.90;99.90;;;;;;5109734;28;20308;-71
2021/08/28 05:50:58;;;;;;;4.43;4.10;;;14.90;99.90;;;;;;5109554;28;20306;-70
2021/08/28 05:53:25;;;;;;;3.97;3.77;;;14.80;99.90;;;;;;5109368;28;20245;-71
2021/08/28 05:55:52;;;;;;;4.90;4.40;;;14.80;99.90;;;;;;5109838;28;20195;-71
2021/08/28 05:58:18;;;;;;;4.23;3.93;;;14.80;99.90;;;;;;5109569;28;20618;-70
2021/08/28 06:00:46;;;;;;;4.60;4.30;;;14.80;99.90;;;;;;5109705;28;20202;-70
2021/08/28 06:03:13;;;;;;;4.40;4.10;;;14.90;99.90;;;;;;5109487;28;20267;-71
2021/08/28 06:05:40;;;;;;;4.77;4.37;;;14.90;99.90;;;;;;5109543;28;20210;-71
2021/08/28 06:08:06;;;;;;;4.73;4.20;;;14.80;99.90;;;;;;5109191;28;20210;-71
2021/08/28 06:10:33;;;;;;;4.23;3.93;;;14.90;99.90;;;;;;5109390;28;20222;-71
2021/08/28 06:12:59;;;;;;;4.33;3.87;;;14.90;99.90;;;;;;5109130;28;20226;-71
2021/08/28 06:15:26;;;;;;;4.17;3.87;;;15.00;99.90;;;;;;5109238;28;20226;-71
2021/08/28 06:17:54;;;;;;;4.43;4.13;;;15.00;99.90;;;;;;5108987;28;20531;-71
2021/08/28 06:20:21;;;;;;;3.97;3.70;;;15.00;99.90;;;;;;5109049;28;20233;-71
2021/08/28 06:22:48;;;;;;;4.67;4.27;;;15.00;99.90;;;;;;5108950;28;20297;-71
2021/08/28 06:25:15;;;;;;;4.40;4.10;;;15.10;99.90;;;;;;5109172;28;20429;-70
2021/08/28 06:27:41;;;;;;;5.13;4.73;;;15.10;99.90;;;;;;5108819;28;20210;-71
2021/08/28 06:30:09;;;;;;;4.40;4.10;;;15.10;99.90;;;;;;5108654;28;20206;-70
2021/08/28 06:32:35;;;;;;;4.20;3.77;;;15.20;99.90;;;;;;5109012;28;20213;-71
2021/08/28 06:35:03;;;;;;;4.43;4.07;;;15.20;99.90;;;;;;5108715;28;20210;-71
2021/08/28 06:37:30;;;;;;;4.50;4.20;;;15.30;99.90;;;;;;5108661;28;20198;-71
2021/08/28 06:39:57;;;;;;;4.60;4.30;;;15.30;99.90;;;;;;5108239;28;20225;-71
2021/08/28 06:42:23;;;;;;;4.63;4.23;;;15.30;99.90;;;;;;5108689;28;20206;-71
2021/08/28 06:44:50;;;;;;;4.47;4.17;;;15.40;99.90;;;;;;5108382;28;20210;-69
2021/08/28 06:47:17;;;;;;;4.23;3.93;;;15.40;99.90;;;;;;5108656;28;20665;-69
2021/08/28 06:49:43;;;;;;;4.57;4.27;;;15.40;99.90;;;;;;5108862;28;20295;-69
2021/08/28 06:52:11;;;;;;;4.10;3.70;;;15.40;99.90;;;;;;5108430;28;20668;-69
2021/08/28 06:54:38;;;;;;;4.00;3.70;;;15.40;99.90;;;;;;5108524;28;20226;-70
2021/08/28 06:57:04;;;;;;;3.90;3.60;;;15.50;99.90;;;;;;5108772;28;20210;-70
2021/08/28 06:59:31;;;;;;;3.93;3.63;;;15.50;99.90;;;;;;5108814;28;21095;-70
2021/08/28 07:01:58;;;;;;;4.00;3.70;;;15.50;99.90;;;;;;5107874;28;20697;-71
2021/08/28 07:04:24;;;;;;;3.70;3.50;;;15.50;99.90;;;;;;5108279;28;20209;-73
2021/08/28 07:06:52;;;;;;;4.40;4.10;;;15.60;99.90;;;;;;5108170;28;20603;-72
2021/08/28 07:09:20;;;;;;;3.70;3.40;;;15.50;99.90;;;;;;5108095;28;20655;-72
2021/08/28 07:11:47;;;;;;;4.10;3.80;;;15.50;99.90;;;;;;5107940;28;20230;-73
2021/08/28 07:14:14;;;;;;;4.13;3.83;;;15.50;99.90;;;;;;5108592;28;20230;-71
2021/08/28 07:16:40;;;;;;;4.17;3.87;;;15.60;99.90;;;;;;5108701;28;20222;-71
2021/08/28 07:19:07;;;;;;;4.33;3.93;;;15.60;99.90;;;;;;5108055;28;21095;-71
2021/08/28 07:21:34;;;;;;;4.30;4.00;;;15.70;99.90;;;;;;5092613;28;20211;-71
2021/08/28 07:24:00;;;;;;;4.83;4.33;;;15.70;99.90;;;;;;5105646;28;20214;-71
2021/08/28 07:26:28;;;;;;;3.93;3.63;;;15.80;99.90;;;;;;5106263;28;20263;-71
2021/08/28 07:28:55;;;;;;;4.87;4.47;;;15.80;99.90;;;;;;5106285;28;20238;-71
2021/08/28 07:31:22;;;;;;;4.93;4.47;;;15.80;99.90;;;;;;5106249;28;20240;-71
2021/08/28 07:33:48;;;;;;;5.27;4.87;;;15.70;99.90;;;;;;5106711;28;20206;-73
2021/08/28 07:36:15;;;;;;;5.27;4.87;;;15.70;99.90;;;;;;5106614;28;20206;-73
2021/08/28 07:38:41;;;;;;;5.20;4.80;;;15.70;99.90;;;;;;5106149;28;20290;-73
2021/08/28 07:41:08;;;;;;;6.23;5.63;;;15.80;99.90;;;;;;5106023;28;20237;-72
2021/08/28 07:43:36;;;;;;;4.90;4.50;;;15.80;99.90;;;;;;5106249;28;20230;-73
2021/08/28 07:46:03;;;;;;;4.60;4.20;;;15.80;99.90;;;;;;5105938;28;20247;-73
2021/08/28 07:48:29;;;;;;;5.67;5.20;;;15.90;99.90;;;;;;5106287;28;20259;-73
2021/08/28 07:50:56;;;;;;;5.50;5.00;;;15.90;99.90;;;;;;5106492;28;20732;-73
2021/08/28 07:53:23;;;;;;;5.10;4.70;;;15.90;99.90;;;;;;5108586;28;20299;-74
2021/08/28 07:55:50;;;;;;;5.47;4.83;;;15.80;99.90;;;;;;5109837;28;20695;-73
2021/08/28 07:58:16;;;;;;;4.63;4.27;;;15.80;99.90;;;;;;5109707;28;20593;-73
2021/08/28 08:00:44;;;;;;;4.93;4.43;;;15.80;99.90;;;;;;5109759;28;20315;-73
2021/08/28 08:03:11;;;;;;;4.67;4.23;;;15.80;99.90;;;;;;5109748;28;20206;-73
2021/08/28 08:05:37;;;;;;;4.20;3.83;;;15.90;99.90;;;;;;5109616;28;20210;-73
2021/08/28 08:08:04;;;;;;;5.17;4.67;;;16.00;99.90;;;;;;5109301;28;20202;-72
2021/08/28 08:10:31;;;;;;;4.40;4.10;;;16.00;99.90;;;;;;5109628;28;20206;-73
2021/08/28 08:12:58;;;;;;;4.90;4.50;;;16.00;99.90;;;;;;5109515;28;20226;-72
2021/08/28 08:15:25;;;;;;;3.90;3.70;;;16.00;99.90;;;;;;5109636;28;20627;-72
2021/08/28 08:17:53;;;;;;;3.70;3.50;;;16.00;99.90;;;;;;5109121;28;20263;-72
2021/08/28 08:20:20;;;;;;;3.43;3.13;;;16.10;99.90;;;;;;5108630;28;20238;-72
2021/08/28 08:22:47;;;;;;;3.20;2.90;;;16.10;99.90;;;;;;5109151;28;20929;-73
2021/08/28 08:25:13;;;;;;;3.10;2.90;;;16.20;99.90;;;;;;5108828;28;20258;-72
2021/08/28 08:27:43;;;;;;;2.57;2.47;;;16.30;99.90;;;;;;5108909;28;20255;-73
2021/08/28 08:30:10;;;;;;;3.00;2.80;;;16.20;99.90;;;;;;5109114;28;20210;-74
2021/08/28 08:32:37;;;;;;;3.03;2.73;;;16.30;99.90;;;;;;5108465;28;20612;-71
2021/08/28 08:35:05;;;;;;;3.10;2.80;;;16.20;99.90;;;;;;5108002;27;20644;-71
2021/08/28 08:37:32;;;;;;;2.60;2.50;;;16.30;99.90;;;;;;5108078;28;20570;-71
2021/08/28 08:39:59;;;;;;;2.60;2.50;;;16.30;99.90;;;;;;5110043;28;20234;-71
2021/08/28 08:42:27;;;;;;;2.80;2.60;;;16.40;99.90;;;;;;5109748;28;20625;-71
2021/08/28 08:44:54;;;;;;;2.23;2.13;;;16.40;99.90;;;;;;5110246;28;20202;-71
2021/08/28 08:47:24;;;;;;;2.60;2.40;;;16.30;99.90;;;;;;5111124;28;20230;-71
2021/08/28 08:49:52;;;;;;;2.70;2.50;;;16.30;99.90;;;;;;5110359;28;20659;-71
2021/08/28 08:52:21;;;;;;;2.50;2.30;;;16.40;99.90;;;;;;5110874;28;20209;-71
2021/08/28 08:54:49;;;;;;;2.93;2.43;;;16.50;99.90;;;;;;5110490;28;20313;-71
2021/08/28 08:57:16;;;;;;;2.57;2.47;;;16.50;99.90;;;;;;5110712;28;20293;-71
2021/08/28 08:59:42;;;;;;;2.50;2.30;;;16.60;99.90;;;;;;5110679;28;20229;-71
2021/08/28 09:02:09;;;;;;;2.50;2.30;;;16.70;99.90;;;;;;5110605;28;20259;-71
2021/08/28 09:04:36;;;;;;;4.30;2.40;;;16.80;99.90;;;;;;5110632;28;20259;-71
2021/08/28 09:07:04;;;;;;;2.83;2.63;;;16.80;99.90;;;;;;5110145;28;20209;-71
2021/08/28 09:09:32;;;;;;;3.07;2.63;;;16.70;99.90;;;;;;5110088;28;20342;-71
2021/08/28 09:12:00;;;;;;;3.70;2.73;;;16.50;99.90;;;;;;5110207;28;20256;-71
2021/08/28 09:14:27;;;;;;;3.30;3.00;;;16.50;99.90;;;;;;5110297;28;20275;-71
2021/08/28 09:16:54;;;;;;;2.80;2.50;;;16.50;99.90;;;;;;5110204;28;20203;-71
2021/08/28 09:19:35;;;;;;;2.70;2.50;;;16.60;99.90;;;;;;5110351;28;20267;-71
2021/08/28 09:22:01;;;;;;;2.60;2.40;;;16.60;99.90;;;;;;5110173;28;20259;-72
2021/08/28 09:24:44;;;;;;;3.43;2.97;;;16.70;99.90;;;;;;5109945;28;20602;-72
2021/08/28 09:27:12;;;;;;;2.60;2.40;;;16.70;99.90;;;;;;5109980;28;20684;-72
2021/08/28 09:29:43;;;;;;;2.53;2.33;;;16.80;99.90;;;;;;5110084;28;20292;-72
2021/08/28 09:32:11;;;;;;;2.30;2.10;;;16.90;99.90;;;;;;5110051;28;20500;-72
2021/08/28 09:34:39;;;;;;;2.73;2.53;;;16.90;99.90;;;;;;5110118;28;20209;-72
2021/08/28 09:37:07;;;;;;;2.50;2.30;;;17.00;99.90;;;;;;5109727;28;20206;-72
2021/08/28 09:39:39;;;;;;;2.10;2.00;;;16.90;99.90;;;;;;5109696;28;20616;-71
2021/08/28 09:42:08;;;;;;;2.20;2.10;;;16.90;99.90;;;;;;5109037;28;20283;-71
2021/08/28 09:44:39;;;;;;;3.37;1.90;;;16.90;99.90;;;;;;5109146;28;20251;-72
2021/08/28 09:47:14;;;;;;;2.07;1.97;;;16.80;99.90;;;;;;5109272;28;20667;-73
2021/08/28 09:49:42;;;;;;;2.13;1.83;;;16.70;99.90;;;;;;5098504;28;20243;-73
2021/08/28 09:52:14;;;;;;;2.27;2.17;;;16.70;99.90;;;;;;5104185;28;20259;-73
2021/08/28 09:54:41;;;;;;;2.50;2.30;;;16.70;99.90;;;;;;5108224;28;20226;-72
2021/08/28 09:57:10;;;;;;;1.87;1.77;;;16.70;99.90;;;;;;5109192;28;20190;-72
2021/08/28 09:59:37;;;;;;;2.40;2.20;;;16.70;99.90;;;;;;5096773;28;20271;-72
2021/08/28 10:02:07;;;;;;;1.97;1.87;;;16.70;99.90;;;;;;5098663;28;20194;-72
2021/08/28 10:04:52;;;;;;;2.70;2.50;;;16.80;99.90;;;;;;5103249;28;20198;-72
2021/08/28 10:07:20;;;;;;;2.23;2.03;;;16.90;99.90;;;;;;5106502;28;20269;-73
2021/08/28 10:09:48;;;;;;;2.43;2.23;;;16.80;99.90;;;;;;5098219;28;20198;-72
2021/08/28 10:12:19;;;;;;;2.20;2.00;;;16.90;99.90;;;;;;5099751;28;20218;-72
2021/08/28 10:14:47;;;;;;;2.40;2.13;;;17.00;99.90;;;;;;5098830;28;20222;-72
2021/08/28 10:17:14;;;;;;;3.00;2.53;;;17.00;99.90;;;;;;5085640;27;20213;-72
2021/08/28 10:19:43;;;;;;;2.17;2.07;;;17.10;99.90;;;;;;5084971;28;20509;-72
2021/08/28 10:22:12;;;;;;;2.47;2.10;;;17.10;99.90;;;;;;5084661;28;20737;-72
2021/08/28 10:24:42;;;;;;;2.47;2.10;;;17.20;99.90;;;;;;5084885;28;20202;-72
2021/08/28 10:27:08;;;;;;;2.33;2.00;;;17.30;99.90;;;;;;5084624;28;20242;-72
2021/08/28 10:29:37;;;;;;;2.10;1.90;;;17.40;99.90;;;;;;5085086;28;20605;-71
2021/08/28 10:32:04;;;;;;;2.20;2.10;;;17.50;99.90;;;;;;5084822;28;20210;-71
2021/08/28 10:34:32;;;;;;;2.63;1.70;;;17.60;99.90;;;;;;5088267;28;20736;-73
2021/08/28 10:36:58;;;;;;;2.50;2.40;;;17.70;99.90;;;;;;5104463;28;20755;-73
2021/08/28 10:39:26;;;;;;;3.80;2.40;;;17.80;99.90;;;;;;5105038;28;20214;-73
2021/08/28 10:41:53;;;;;;;2.70;2.50;;;17.90;99.90;;;;;;5105421;28;20279;-73
2021/08/28 10:44:20;;;;;;;2.40;2.17;;;17.90;99.90;;;;;;5105257;28;20713;-74
2021/08/28 10:46:48;;;;;;;1.80;1.70;;;18.10;99.90;;;;;;5105379;28;20673;-73
2021/08/28 10:49:14;;;;;;;2.03;1.93;;;18.20;99.90;;;;;;5104889;28;20230;-73
2021/08/28 10:51:43;;;;;;;2.30;2.20;;;18.30;99.90;;;;;;5105077;28;20210;-73
2021/08/28 10:54:11;;;;;;;2.10;2.00;;;18.50;99.90;;;;;;5104713;27;20297;-73
2021/08/28 10:56:43;;;;;;;2.03;1.93;;;18.60;99.90;;;;;;5104976;28;20242;-73
2021/08/28 10:59:21;;;;;;;2.17;1.97;;;18.80;99.90;;;;;;5104657;28;20201;-74
2021/08/28 11:02:01;;;;;;;2.30;2.10;;;18.90;99.90;;;;;;5104878;28;20309;-74
2021/08/28 11:04:33;;;;;;;2.40;2.03;;;19.10;99.90;;;;;;5104324;28;20648;-74
2021/08/28 11:07:23;;;;;;;1.50;1.50;;;19.30;99.90;;;;;;5104800;28;20259;-74
2021/08/28 11:10:13;;;;;;;3.10;1.77;;;19.50;99.90;;;;;;5105053;28;20198;-74
2021/08/28 11:12:59;;;;;;;3.37;1.70;;;19.70;99.90;;;;;;5104663;28;20261;-74
2021/08/28 11:15:50;;;;;;;1.67;1.57;;;19.70;99.90;;;;;;5104514;28;20302;-73
2021/08/28 11:18:43;;;;;;;1.67;1.57;;;19.70;99.90;;;;;;5104737;28;20190;-74
2021/08/28 11:21:11;;;;;;;1.57;1.57;;;19.80;99.90;;;;;;5104614;28;20222;-74
2021/08/28 11:23:41;;;;;;;1.80;1.70;;;19.90;99.90;;;;;;5104533;28;20209;-74
2021/08/28 11:26:08;;;;;;;4.03;1.63;;;19.90;99.90;;;;;;5104692;28;20437;-74
2021/08/28 11:28:37;;;;;;;2.00;1.90;;;20.10;99.90;;;;;;5107178;28;20202;-74
2021/08/28 11:31:04;;;;;;;1.80;1.70;;;20.20;99.90;;;;;;5108571;28;20687;-73
2021/08/28 11:33:32;;;;;;;2.43;2.10;;;20.40;99.90;;;;;;5108787;28;20198;-74
2021/08/28 11:36:04;;;;;;;1.80;1.70;;;20.50;99.90;;;;;;5108302;28;20241;-74
2021/08/28 11:38:36;;;;;;;1.90;1.80;;;20.50;99.90;;;;;;5108213;28;20601;-74
2021/08/28 11:41:07;;;;;;;1.87;1.77;;;20.50;99.90;;;;;;5107723;27;20695;-74
2021/08/28 11:43:35;;;;;;;2.00;1.90;;;20.70;99.90;;;;;;5108639;28;20194;-74
2021/08/28 11:46:04;;;;;;;1.97;1.87;;;20.70;99.90;;;;;;5108022;28;20228;-74
2021/08/28 11:48:31;;;;;;;1.97;1.87;;;20.80;99.90;;;;;;5108066;28;20263;-74
2021/08/28 11:50:59;;;;;;;2.43;2.23;;;20.80;99.90;;;;;;5107555;28;20229;-74
2021/08/28 11:53:28;;;;;;;1.77;1.67;;;20.80;99.90;;;;;;5107067;28;20377;-73
2021/08/28 11:56:04;;;;;;;1.77;1.67;;;20.80;99.90;;;;;;5107734;28;20202;-73
2021/08/28 11:58:30;;;;;;;1.77;1.67;;;20.90;99.90;;;;;;5106596;28;20201;-74
2021/08/28 12:00:57;;;;;;;2.53;2.33;;;21.10;99.90;;;;;;5105400;28;20278;-74
2021/08/28 12:03:24;;;;;;;2.38;2.28;;;21.30;99.90;;;;;;5105266;28;20235;-74
2021/08/28 12:05:53;;;;;;;1.90;1.80;;;21.40;99.90;;;;;;5100949;28;20210;-74
2021/08/28 12:08:22;;;;;;;1.88;1.77;;;21.60;99.90;;;;;;5107909;28;20213;-74
2021/08/28 12:10:48;;;;;;;1.88;1.77;;;21.60;99.90;;;;;;5107483;28;20222;-74
2021/08/28 12:13:15;;;;;;;2.10;2.00;;;21.70;99.90;;;;;;5108025;28;20206;-74
2021/08/28 12:15:47;;;;;;;1.73;1.63;;;21.80;99.90;;;;;;5107135;28;20255;-74
2021/08/28 12:18:26;;;;;;;1.90;1.60;;;21.80;99.90;;;;;;5107694;28;20202;-74
2021/08/28 12:20:53;;;;;;;1.83;1.73;;;21.80;99.90;;;;;;5106684;28;20282;-74
2021/08/28 12:23:19;;;;;;;1.77;1.67;;;21.80;99.90;;;;;;5105770;28;20210;-73
2021/08/28 12:25:47;;;;;;;1.70;1.60;;;21.80;99.90;;;;;;5106196;28;20209;-74
2021/08/28 12:28:14;;;;;;;1.63;1.52;;;21.80;99.90;;;;;;5107138;28;20202;-74
2021/08/28 12:30:41;;;;;;;1.80;1.70;;;21.80;99.90;;;;;;5107487;27;20210;-72
2021/08/28 12:33:11;;;;;;;1.75;1.65;;;21.80;99.90;;;;;;5106262;28;20259;-73
2021/08/28 12:35:38;;;;;;;1.92;1.83;;;21.70;99.90;;;;;;5106641;28;20202;-73
2021/08/28 12:38:14;;;;;;;1.42;1.42;;;21.60;99.90;;;;;;5106595;28;20239;-73
2021/08/28 12:40:41;;;;;;;2.10;1.80;;;21.40;99.90;;;;;;5106902;28;20249;-73
2021/08/28 12:43:10;;;;;;;1.70;1.60;;;21.20;99.90;;;;;;5106641;28;20617;-73
2021/08/28 12:45:38;;;;;;;1.90;1.80;;;21.10;99.90;;;;;;5106255;28;20279;-73
2021/08/28 12:48:06;;;;;;;1.80;1.70;;;21.00;99.90;;;;;;5105418;28;20206;-73
2021/08/28 12:50:33;;;;;;;1.60;1.33;;;21.10;99.90;;;;;;5105525;28;20234;-74
2021/08/28 12:53:06;;;;;;;1.70;1.60;;;21.20;99.90;;;;;;5105996;28;20640;-73